createdAt,value
2022-10-02T00:00:02.214Z,12.43
2022-10-02T00:02:43.957Z,12.47
2022-10-02T00:05:15.200Z,12.48
2022-10-02T00:07:53.903Z,12.54
2022-10-02T00:10:34.390Z,12.60
2022-10-02T00:13:05.929Z,12.63
2022-10-02T00:15:35.713Z,12.60
2022-10-02T00:18:12.552Z,12.54
2022-10-02T00:21:03.085Z,12.56
2022-10-02T00:23:43.154Z,12.53
2022-10-02T00:26:17.880Z,12.52
2022-10-02T00:29:16.622Z,12.57
2022-10-02T00:32:03.164Z,12.51
2022-10-02T00:34:44.820Z,12.47
2022-10-02T00:37:28.688Z,12.54
2022-10-02T00:40:29.660Z,12.43
2022-10-02T00:43:18.276Z,12.41
2022-10-02T00:46:09.939Z,12.35
2022-10-02T00:48:45.402Z,12.32
2022-10-02T00:51:44.360Z,12.38
2022-10-02T00:54:16.861Z,12.14
2022-10-02T00:56:57.087Z,12.16
2022-10-02T00:59:51.512Z,12.16
2022-10-02T01:02:24.162Z,12.17
2022-10-02T01:04:50.878Z,12.18
2022-10-02T01:07:17.435Z,11.92
2022-10-02T01:09:45.562Z,11.97
2022-10-02T01:12:12.980Z,12.02
2022-10-02T01:14:40.884Z,12.05
2022-10-02T01:17:23.657Z,12.04
2022-10-02T01:19:50.711Z,12.04
2022-10-02T01:22:43.083Z,12.07
2022-10-02T01:25:09.746Z,12.11
2022-10-02T01:27:39.394Z,12.13
2022-10-02T01:30:11.951Z,12.13
2022-10-02T01:32:44.099Z,12.08
2022-10-02T01:35:10.854Z,12.17
2022-10-02T01:37:41.110Z,12.11
2022-10-02T01:40:10.695Z,12.10
2022-10-02T01:42:38.932Z,12.16
2022-10-02T01:45:08.138Z,12.13
2022-10-02T01:48:02.813Z,12.16
2022-10-02T01:50:39.801Z,12.13
2022-10-02T01:53:20.354Z,12.08
2022-10-02T01:56:03.928Z,12.09
2022-10-02T01:58:55.369Z,12.15
2022-10-02T02:01:25.236Z,11.98
2022-10-02T02:04:14.148Z,11.93
2022-10-02T02:06:55.913Z,11.87
2022-10-02T02:09:39.872Z,11.87
2022-10-02T02:12:15.179Z,11.89
2022-10-02T02:15:00.104Z,11.85
2022-10-02T02:17:34.194Z,11.93
2022-10-02T02:20:13.743Z,11.85
2022-10-02T02:22:46.402Z,11.77
2022-10-02T02:25:17.741Z,11.77
2022-10-02T02:27:56.081Z,11.81
2022-10-02T02:30:24.068Z,11.71
2022-10-02T02:32:56.870Z,11.79
2022-10-02T02:35:27.561Z,11.81
2022-10-02T02:38:02.396Z,11.78
2022-10-02T02:40:31.379Z,11.68
2022-10-02T02:43:14.532Z,11.64
2022-10-02T02:45:49.059Z,11.70
2022-10-02T02:48:41.321Z,11.60
2022-10-02T02:51:15.198Z,11.60
2022-10-02T02:53:49.314Z,11.61
2022-10-02T02:56:19.290Z,11.69
2022-10-02T02:58:53.930Z,11.66
2022-10-02T03:01:21.000Z,11.63
2022-10-02T03:03:48.351Z,11.67
2022-10-02T03:06:20.580Z,11.67
2022-10-02T03:08:50.333Z,11.66
2022-10-02T03:11:38.842Z,11.67
2022-10-02T03:14:26.405Z,11.71
2022-10-02T03:17:23.889Z,11.67
2022-10-02T03:20:29.225Z,11.59
2022-10-02T03:23:00.021Z,11.59
2022-10-02T03:25:41.460Z,11.61
2022-10-02T03:28:50.539Z,11.63
2022-10-02T03:31:12.959Z,11.64
2022-10-02T03:33:40.993Z,11.64
2022-10-02T03:36:08.656Z,11.59
2022-10-02T03:38:35.995Z,11.56
2022-10-02T03:41:02.572Z,11.47
2022-10-02T03:43:30.645Z,11.44
2022-10-02T03:45:57.412Z,11.41
2022-10-02T03:48:24.205Z,11.41
2022-10-02T03:50:51.031Z,11.39
2022-10-02T03:53:21.111Z,11.43
2022-10-02T03:55:57.651Z,11.41
2022-10-02T03:58:25.702Z,11.38
2022-10-02T04:00:58.886Z,11.40
2022-10-02T04:03:43.788Z,11.42
2022-10-02T04:06:25.304Z,11.40
2022-10-02T04:09:01.189Z,11.41
2022-10-02T04:11:33.464Z,11.47
2022-10-02T04:14:10.080Z,11.43
2022-10-02T04:16:42.603Z,11.41
2022-10-02T04:19:17.137Z,11.46
2022-10-02T04:21:55.588Z,11.42
2022-10-02T04:24:22.119Z,11.40
2022-10-02T04:27:23.606Z,11.47
2022-10-02T04:29:58.314Z,11.48
2022-10-02T04:32:27.687Z,11.48
2022-10-02T04:34:54.548Z,11.40
2022-10-02T04:37:44.582Z,11.51
2022-10-02T04:40:29.806Z,11.47
2022-10-02T04:43:21.062Z,11.35
2022-10-02T04:46:17.098Z,11.36
2022-10-02T04:48:52.965Z,11.35
2022-10-02T04:51:41.162Z,11.39
2022-10-02T04:54:32.647Z,11.30
2022-10-02T04:57:05.517Z,11.26
2022-10-02T04:59:47.044Z,11.23
2022-10-02T05:02:35.241Z,11.17
2022-10-02T05:05:23.574Z,11.20
2022-10-02T05:08:20.383Z,11.27
2022-10-02T05:11:13.234Z,11.14
2022-10-02T05:13:45.798Z,11.18
2022-10-02T05:16:43.089Z,11.19
2022-10-02T05:19:27.813Z,11.25
2022-10-02T05:22:12.108Z,11.20
2022-10-02T05:24:57.931Z,11.17
2022-10-02T05:27:25.028Z,11.14
2022-10-02T05:29:57.416Z,11.14
2022-10-02T05:32:48.816Z,11.13
2022-10-02T05:35:24.307Z,11.09
2022-10-02T05:37:59.867Z,11.11
2022-10-02T05:40:30.589Z,11.05
2022-10-02T05:43:10.988Z,11.07
2022-10-02T05:45:40.757Z,11.09
2022-10-02T05:48:18.450Z,11.13
2022-10-02T05:50:50.071Z,11.14
2022-10-02T05:53:33.834Z,11.15
2022-10-02T05:56:09.337Z,11.10
2022-10-02T05:58:36.674Z,11.22
2022-10-02T06:01:17.817Z,11.17
2022-10-02T06:04:19.262Z,11.20
2022-10-02T06:06:51.681Z,11.23
2022-10-02T06:09:38.537Z,11.23
2022-10-02T06:12:14.511Z,11.22
2022-10-02T06:14:51.008Z,11.24
2022-10-02T06:17:49.661Z,11.28
2022-10-02T06:20:37.610Z,11.28
2022-10-02T06:23:16.331Z,11.33
2022-10-02T06:26:17.982Z,11.40
2022-10-02T06:28:53.076Z,11.45
2022-10-02T06:31:57.425Z,11.49
2022-10-02T06:34:24.114Z,11.52
2022-10-02T06:37:13.961Z,11.64
2022-10-02T06:39:56.777Z,11.69
2022-10-02T06:42:38.425Z,11.77
2022-10-02T06:45:23.721Z,11.83
2022-10-02T06:47:57.523Z,11.93
2022-10-02T06:50:30.381Z,11.98
2022-10-02T06:53:29.224Z,11.98
2022-10-02T06:56:26.809Z,12.09
2022-10-02T06:59:14.883Z,12.15
2022-10-02T07:01:57.620Z,12.18
2022-10-02T07:04:47.024Z,12.21
2022-10-02T07:07:13.552Z,12.22
2022-10-02T07:10:03.551Z,12.29
2022-10-02T07:13:05.434Z,12.33
2022-10-02T07:15:49.298Z,12.36
2022-10-02T07:18:21.627Z,12.40
2022-10-02T07:21:03.078Z,12.44
2022-10-02T07:24:02.630Z,12.48
2022-10-02T07:26:48.300Z,12.53
2022-10-02T07:29:32.431Z,12.56
2022-10-02T07:32:17.668Z,12.61
2022-10-02T07:35:22.156Z,12.66
2022-10-02T07:38:10.628Z,12.70
2022-10-02T07:41:16.053Z,12.74
2022-10-02T07:43:54.682Z,12.80
2022-10-02T07:46:40.069Z,12.87
2022-10-02T07:49:39.393Z,12.85
2022-10-02T07:52:28.732Z,12.97
2022-10-02T07:54:55.329Z,13.03
2022-10-02T07:57:27.627Z,13.15
2022-10-02T08:00:23.947Z,13.29
2022-10-02T08:02:59.634Z,13.32
2022-10-02T08:05:42.482Z,13.35
2022-10-02T08:08:47.718Z,13.46
2022-10-02T08:11:24.318Z,13.47
2022-10-02T08:13:57.873Z,13.50
2022-10-02T08:16:32.457Z,13.51
2022-10-02T08:19:21.708Z,13.58
2022-10-02T08:21:55.509Z,13.63
2022-10-02T08:24:29.975Z,13.64
2022-10-02T08:27:08.377Z,13.67
2022-10-02T08:29:48.972Z,13.70
2022-10-02T08:32:15.581Z,13.88
2022-10-02T08:34:43.535Z,13.97
2022-10-02T08:37:19.233Z,14.09
2022-10-02T08:40:22.982Z,14.18
2022-10-02T08:43:13.991Z,14.21
2022-10-02T08:46:14.531Z,14.33
2022-10-02T08:49:17.767Z,14.45
2022-10-02T08:52:16.283Z,14.53
2022-10-02T08:55:10.581Z,14.57
2022-10-02T08:57:54.421Z,14.62
2022-10-02T09:00:25.051Z,14.69
2022-10-02T09:02:54.375Z,14.87
2022-10-02T09:05:56.448Z,14.89
2022-10-02T09:09:07.379Z,14.96
2022-10-02T09:11:52.092Z,15.08
2022-10-02T09:14:58.811Z,15.10
2022-10-02T09:17:35.498Z,15.11
2022-10-02T09:20:05.005Z,15.11
2022-10-02T09:22:40.338Z,15.12
2022-10-02T09:25:06.941Z,15.13
2022-10-02T09:27:51.638Z,15.16
2022-10-02T09:30:33.098Z,15.24
2022-10-02T09:33:34.615Z,15.37
2022-10-02T09:36:24.826Z,15.47
2022-10-02T09:39:13.570Z,15.67
2022-10-02T09:42:00.746Z,15.66
2022-10-02T09:44:46.139Z,15.61
2022-10-02T09:47:44.096Z,15.60
2022-10-02T09:50:42.343Z,15.70
2022-10-02T09:53:36.047Z,15.79
2022-10-02T09:56:17.926Z,15.92
2022-10-02T09:59:19.009Z,16.12
2022-10-02T10:02:04.694Z,16.16
2022-10-02T10:04:54.021Z,16.15
2022-10-02T10:07:39.154Z,16.18
2022-10-02T10:10:32.533Z,16.27
2022-10-02T10:13:16.130Z,16.48
2022-10-02T10:16:22.133Z,16.42
2022-10-02T10:19:07.465Z,16.38
2022-10-02T10:22:04.352Z,16.30
2022-10-02T10:25:00.603Z,16.36
2022-10-02T10:27:49.100Z,16.53
2022-10-02T10:30:58.072Z,16.66
2022-10-02T10:33:44.055Z,16.78
2022-10-02T10:36:55.301Z,16.68
2022-10-02T10:39:39.788Z,16.75
2022-10-02T10:42:27.556Z,16.82
2022-10-02T10:45:18.299Z,16.77
2022-10-02T10:48:30.037Z,16.91
2022-10-02T10:51:34.056Z,16.86
2022-10-02T10:54:33.639Z,16.86
2022-10-02T10:57:18.617Z,16.95
2022-10-02T11:00:13.492Z,16.99
2022-10-02T11:02:54.650Z,17.04
2022-10-02T11:05:49.505Z,17.31
2022-10-02T11:08:18.995Z,17.38
2022-10-02T11:11:19.734Z,17.35
2022-10-02T11:14:11.003Z,17.34
2022-10-02T11:16:44.032Z,17.40
2022-10-02T11:19:24.922Z,17.65
2022-10-02T11:22:09.832Z,17.58
2022-10-02T11:24:50.895Z,17.57
2022-10-02T11:27:45.411Z,17.88
2022-10-02T11:30:21.296Z,17.79
2022-10-02T11:33:07.205Z,17.89
2022-10-02T11:35:44.989Z,17.99
2022-10-02T11:38:30.523Z,18.01
2022-10-02T11:40:59.821Z,18.11
2022-10-02T11:43:44.201Z,18.22
2022-10-02T11:46:17.122Z,18.32
2022-10-02T11:49:31.698Z,18.39
2022-10-02T11:52:19.413Z,18.42
2022-10-02T11:55:09.861Z,18.61
2022-10-02T11:57:39.407Z,18.59
2022-10-02T12:00:35.343Z,18.73
2022-10-02T12:03:21.261Z,18.98
2022-10-02T12:06:33.797Z,19.00
2022-10-02T12:09:09.511Z,19.04
2022-10-02T12:12:16.999Z,19.21
2022-10-02T12:14:49.447Z,19.28
2022-10-02T12:17:37.812Z,19.36
2022-10-02T12:20:31.224Z,19.31
2022-10-02T12:24:06.938Z,19.34
2022-10-02T12:27:00.431Z,19.34
2022-10-02T12:29:40.464Z,19.56
2022-10-02T12:32:29.220Z,19.63
2022-10-02T12:35:17.938Z,19.66
2022-10-02T12:37:53.620Z,19.66
2022-10-02T12:40:32.788Z,19.60
2022-10-02T12:43:26.820Z,19.62
2022-10-02T12:46:15.036Z,19.66
2022-10-02T12:49:14.253Z,19.70
2022-10-02T12:52:12.720Z,19.92
2022-10-02T12:54:57.962Z,19.94
2022-10-02T12:57:52.091Z,19.93
2022-10-02T13:00:20.442Z,19.97
2022-10-02T13:03:05.515Z,20.09
2022-10-02T13:05:35.280Z,20.08
2022-10-02T13:08:41.558Z,20.11
2022-10-02T13:11:35.884Z,20.26
2022-10-02T13:14:23.422Z,20.31
2022-10-02T13:17:10.081Z,20.36
2022-10-02T13:19:53.586Z,20.32
2022-10-02T13:22:26.204Z,20.40
2022-10-02T13:25:18.687Z,20.36
2022-10-02T13:28:30.285Z,20.39
2022-10-02T13:31:36.564Z,20.43
2022-10-02T13:34:13.646Z,20.50
2022-10-02T13:37:00.431Z,20.47
2022-10-02T13:39:29.663Z,20.52
2022-10-02T13:42:14.749Z,20.45
2022-10-02T13:44:41.350Z,20.51
2022-10-02T13:47:34.069Z,20.56
2022-10-02T13:50:22.418Z,20.69
2022-10-02T13:53:03.402Z,20.72
2022-10-02T13:55:40.940Z,20.68
2022-10-02T13:58:35.561Z,20.73
2022-10-02T14:01:11.488Z,20.79
2022-10-02T14:04:10.859Z,20.79
2022-10-02T14:06:58.756Z,20.90
2022-10-02T14:09:47.289Z,20.94
2022-10-02T14:12:27.629Z,21.07
2022-10-02T14:15:12.313Z,21.12
2022-10-02T14:18:00.782Z,21.19
2022-10-02T14:20:32.011Z,21.18
2022-10-02T14:23:33.721Z,21.26
2022-10-02T14:26:18.807Z,21.31
2022-10-02T14:29:08.994Z,21.26
2022-10-02T14:31:36.175Z,21.26
2022-10-02T14:34:13.951Z,21.29
2022-10-02T14:36:59.036Z,21.33
2022-10-02T14:39:37.443Z,21.38
2022-10-02T14:42:22.121Z,21.31
2022-10-02T14:45:06.848Z,21.28
2022-10-02T14:47:51.787Z,21.26
2022-10-02T14:50:42.769Z,21.28
2022-10-02T14:53:28.108Z,21.32
2022-10-02T14:56:27.862Z,21.29
2022-10-02T14:59:12.003Z,21.31
2022-10-02T15:01:45.328Z,21.26
2022-10-02T15:04:22.532Z,21.19
2022-10-02T15:06:57.981Z,21.14
2022-10-02T15:09:49.505Z,21.14
2022-10-02T15:12:24.213Z,21.10
2022-10-02T15:15:16.036Z,21.17
2022-10-02T15:18:00.034Z,21.19
2022-10-02T15:20:48.661Z,21.17
2022-10-02T15:23:41.636Z,21.20
2022-10-02T15:26:25.758Z,21.17
2022-10-02T15:29:11.155Z,21.13
2022-10-02T15:32:04.845Z,21.12
2022-10-02T15:34:52.068Z,21.12
2022-10-02T15:37:18.601Z,21.13
2022-10-02T15:39:51.836Z,21.23
2022-10-02T15:42:41.882Z,21.22
2022-10-02T15:45:19.467Z,21.20
2022-10-02T15:48:04.941Z,21.09
2022-10-02T15:50:34.557Z,21.03
2022-10-02T15:53:26.104Z,20.92
2022-10-02T15:55:59.180Z,20.79
2022-10-02T15:58:58.439Z,20.64
2022-10-02T16:01:52.236Z,20.44
2022-10-02T16:04:27.582Z,20.27
2022-10-02T16:07:14.280Z,20.18
2022-10-02T16:09:43.624Z,20.06
2022-10-02T16:12:36.380Z,19.98
2022-10-02T16:15:32.271Z,19.77
2022-10-02T16:18:04.946Z,19.62
2022-10-02T16:21:06.370Z,19.48
2022-10-02T16:24:08.665Z,19.37
2022-10-02T16:27:00.739Z,19.20
2022-10-02T16:29:47.871Z,19.03
2022-10-02T16:32:22.113Z,18.97
2022-10-02T16:35:20.209Z,18.85
2022-10-02T16:37:59.695Z,18.69
2022-10-02T16:40:42.409Z,18.50
2022-10-02T16:43:26.986Z,18.51
2022-10-02T16:46:09.905Z,18.41
2022-10-02T16:49:19.731Z,18.32
2022-10-02T16:52:10.451Z,18.32
2022-10-02T16:54:57.401Z,18.31
2022-10-02T16:57:37.229Z,18.26
2022-10-02T17:00:23.963Z,18.26
2022-10-02T17:02:58.490Z,18.23
2022-10-02T17:05:45.727Z,18.10
2022-10-02T17:08:23.092Z,18.08
2022-10-02T17:10:53.274Z,17.96
2022-10-02T17:13:32.276Z,17.93
2022-10-02T17:16:08.073Z,17.96
2022-10-02T17:18:45.441Z,17.92
2022-10-02T17:21:24.754Z,17.91
2022-10-02T17:24:28.880Z,17.88
2022-10-02T17:27:04.260Z,17.83
2022-10-02T17:29:39.839Z,17.81
2022-10-02T17:32:09.002Z,17.79
2022-10-02T17:34:47.942Z,17.77
2022-10-02T17:37:17.396Z,17.69
2022-10-02T17:40:05.695Z,17.66
2022-10-02T17:42:41.364Z,17.65
2022-10-02T17:45:42.296Z,17.69
2022-10-02T17:48:24.366Z,17.60
2022-10-02T17:50:59.964Z,17.59
2022-10-02T17:53:51.098Z,17.59
2022-10-02T17:56:41.036Z,17.53
2022-10-02T17:59:20.085Z,17.52
2022-10-02T18:01:51.314Z,17.45
2022-10-02T18:04:24.215Z,17.41
2022-10-02T18:06:53.990Z,17.40
2022-10-02T18:09:23.527Z,17.43
2022-10-02T18:12:18.541Z,17.40
2022-10-02T18:14:51.560Z,17.39
2022-10-02T18:17:27.538Z,17.44
2022-10-02T18:20:17.095Z,17.39
2022-10-02T18:23:04.863Z,17.31
2022-10-02T18:25:41.709Z,17.29
2022-10-02T18:28:17.701Z,17.26
2022-10-02T18:30:56.956Z,17.20
2022-10-02T18:33:54.087Z,17.15
2022-10-02T18:36:50.649Z,17.12
2022-10-02T18:39:19.874Z,17.17
2022-10-02T18:42:17.076Z,17.15
2022-10-02T18:45:27.144Z,17.06
2022-10-02T18:48:20.263Z,16.94
2022-10-02T18:51:12.248Z,16.80
2022-10-02T18:53:59.654Z,16.80
2022-10-02T18:57:04.247Z,16.62
2022-10-02T18:59:45.717Z,16.70
2022-10-02T19:02:49.761Z,16.65
2022-10-02T19:05:26.082Z,16.50
2022-10-02T19:08:04.871Z,16.39
2022-10-02T19:10:31.420Z,16.38
2022-10-02T19:13:01.025Z,16.39
2022-10-02T19:15:31.095Z,16.44
2022-10-02T19:18:01.047Z,16.45
2022-10-02T19:20:53.118Z,16.49
2022-10-02T19:23:34.194Z,16.60
2022-10-02T19:26:06.135Z,16.67
2022-10-02T19:28:45.417Z,16.60
2022-10-02T19:31:13.346Z,16.51
2022-10-02T19:33:49.821Z,16.55
2022-10-02T19:36:24.142Z,16.58
2022-10-02T19:39:01.316Z,16.60
2022-10-02T19:41:35.367Z,16.64
2022-10-02T19:44:07.182Z,16.61
2022-10-02T19:46:37.139Z,16.64
2022-10-02T19:49:05.083Z,16.67
2022-10-02T19:51:43.093Z,16.65
2022-10-02T19:54:16.262Z,16.63
2022-10-02T19:56:44.706Z,16.56
2022-10-02T19:59:19.622Z,16.52
2022-10-02T20:01:49.061Z,16.47
2022-10-02T20:04:20.042Z,16.43
2022-10-02T20:06:53.041Z,16.40
2022-10-02T20:09:43.867Z,16.42
2022-10-02T20:12:15.664Z,16.43
2022-10-02T20:14:54.274Z,16.41
2022-10-02T20:17:21.016Z,16.34
2022-10-02T20:20:02.006Z,16.41
2022-10-02T20:22:31.914Z,16.35
2022-10-02T20:25:18.633Z,16.42
2022-10-02T20:27:52.493Z,16.35
2022-10-02T20:30:21.813Z,16.35
2022-10-02T20:33:03.043Z,16.24
2022-10-02T20:35:51.125Z,16.23
2022-10-02T20:38:44.648Z,16.09
2022-10-02T20:41:23.653Z,16.04
2022-10-02T20:44:02.182Z,16.09
2022-10-02T20:47:00.390Z,16.08
2022-10-02T20:49:40.259Z,16.10
2022-10-02T20:52:52.447Z,16.14
2022-10-02T20:55:27.146Z,16.11
2022-10-02T20:58:01.121Z,16.10
2022-10-02T21:00:42.926Z,16.13
2022-10-02T21:03:37.159Z,16.09
2022-10-02T21:06:26.575Z,15.98
2022-10-02T21:09:22.394Z,15.97
2022-10-02T21:11:58.417Z,15.96
2022-10-02T21:14:44.626Z,15.82
2022-10-02T21:17:48.776Z,15.82
2022-10-02T21:20:49.244Z,15.80
2022-10-02T21:23:38.950Z,15.75
2022-10-02T21:26:17.596Z,15.70
2022-10-02T21:29:08.834Z,15.71
2022-10-02T21:31:41.290Z,15.72
2022-10-02T21:34:08.800Z,15.66
2022-10-02T21:36:57.424Z,15.54
2022-10-02T21:39:45.339Z,15.52
2022-10-02T21:42:42.703Z,15.56
2022-10-02T21:45:32.240Z,15.44
2022-10-02T21:48:13.887Z,15.38
2022-10-02T21:51:13.962Z,15.33
2022-10-02T21:53:58.712Z,15.37
2022-10-02T21:56:52.630Z,15.35
2022-10-02T22:00:07.950Z,15.38
2022-10-02T22:03:22.968Z,15.37
2022-10-02T22:06:15.259Z,15.30
2022-10-02T22:08:55.221Z,15.27
2022-10-02T22:11:34.600Z,15.23
2022-10-02T22:14:09.118Z,15.22
2022-10-02T22:16:42.825Z,15.21
2022-10-02T22:19:53.956Z,15.25
2022-10-02T22:22:29.292Z,15.12
2022-10-02T22:25:14.026Z,15.06
2022-10-02T22:28:05.377Z,15.07
2022-10-02T22:30:47.817Z,15.03
2022-10-02T22:33:23.340Z,14.97
2022-10-02T22:36:27.166Z,14.96
2022-10-02T22:39:05.736Z,14.95
2022-10-02T22:41:38.635Z,14.97
2022-10-02T22:44:18.847Z,14.97
2022-10-02T22:46:54.038Z,14.96
2022-10-02T22:49:37.541Z,14.97
2022-10-02T22:52:08.744Z,14.95
2022-10-02T22:54:38.092Z,14.87
2022-10-02T22:57:12.763Z,14.85
2022-10-02T22:59:46.347Z,14.87
2022-10-02T23:02:32.682Z,14.77
2022-10-02T23:05:12.274Z,14.62
2022-10-02T23:07:49.545Z,14.67
2022-10-02T23:10:25.714Z,14.69
2022-10-02T23:13:04.403Z,14.75
2022-10-02T23:15:59.355Z,14.69
2022-10-02T23:18:36.884Z,14.58
2022-10-02T23:21:29.431Z,14.59
2022-10-02T23:24:22.558Z,14.64
2022-10-02T23:26:55.465Z,14.45
2022-10-02T23:29:46.244Z,14.48
2022-10-02T23:32:31.645Z,14.52
2022-10-02T23:35:19.160Z,14.55
2022-10-02T23:38:02.022Z,14.54
2022-10-02T23:40:50.290Z,14.46
2022-10-02T23:43:38.456Z,14.41
2022-10-02T23:46:15.893Z,14.40
2022-10-02T23:48:43.004Z,14.37
2022-10-02T23:51:15.200Z,14.35
2022-10-02T23:53:53.998Z,14.44
2022-10-02T23:56:35.585Z,14.49
2022-10-02T23:59:12.527Z,14.43
